< < Back
Terminal Aerodrome Forecast


Current Version              Previous Versions:   1  2  3  4  5  6  7  8  9  

Terminal Aerodrome Forecast

168
FTUS44 KBMX 010500
TAFMGM
TAF
KMGM 010523Z 0106/0206 12005KT P6SM OVC250
     FM011400 13007KT P6SM BKN025
     FM011700 15009KT 6SM -RA BKN007 OVC015
     FM012100 19008KT 4SM RA BR OVC007=



Latest METAR

794
SAUS80 KWBC 010900 RRF
MTRMGM
METAR KMGM 010853Z AUTO 10005KT 10SM CLR 05/M02 A3018 RMK AO2 SLP218
T00501017 58015


USA.gov is the U.S. government's official web portal to all federal, state and local government web resources and services.